createdAt,value
2019-05-02T00:01:05.735Z,98860.53
2019-05-02T00:03:35.987Z,98858.73
2019-05-02T00:06:07.516Z,98860.80
2019-05-02T00:08:35.966Z,98868.51
2019-05-02T00:11:04.932Z,98866.31
2019-05-02T00:13:33.822Z,98870.44
2019-05-02T00:16:02.328Z,98866.58
2019-05-02T00:18:31.843Z,98866.23
2019-05-02T00:21:03.188Z,98868.51
2019-05-02T00:23:31.813Z,98862.22
2019-05-02T00:26:00.295Z,98870.30
2019-05-02T00:28:28.900Z,98868.25
2019-05-02T00:30:57.463Z,98867.26
2019-05-02T00:33:29.354Z,98858.75
2019-05-02T00:35:56.371Z,98859.59
2019-05-02T00:38:24.932Z,98864.29
2019-05-02T00:40:57.377Z,98867.47
2019-05-02T00:43:23.906Z,98869.69
2019-05-02T00:45:55.063Z,98864.39
2019-05-02T00:48:45.466Z,98872.68
2019-05-02T00:51:14.141Z,98871.98
2019-05-02T00:53:44.393Z,98868.86
2019-05-02T00:56:13.104Z,98871.86
2019-05-02T00:58:41.592Z,98870.90
2019-05-02T01:01:35.375Z,98872.25
2019-05-02T01:04:10.852Z,98872.70
2019-05-02T01:06:39.308Z,98879.77
2019-05-02T01:09:10.889Z,98876.91
2019-05-02T01:11:38.874Z,98876.79
2019-05-02T01:14:07.664Z,98875.45
2019-05-02T01:16:36.571Z,98880.77
2019-05-02T01:19:05.549Z,98879.55
2019-05-02T01:21:38.712Z,98875.57
2019-05-02T01:24:04.571Z,98874.87
2019-05-02T01:26:37.089Z,98873.42
2019-05-02T01:29:29.837Z,98875.84
2019-05-02T01:32:04.878Z,98873.18
2019-05-02T01:34:42.797Z,98873.67
2019-05-02T01:37:24.392Z,98873.56
2019-05-02T01:39:53.000Z,98874.39
2019-05-02T01:42:21.482Z,98871.38
2019-05-02T01:44:50.027Z,98870.54
2019-05-02T01:47:18.624Z,98864.29
2019-05-02T01:49:47.200Z,98866.91
2019-05-02T01:52:18.862Z,98866.22
2019-05-02T01:54:47.589Z,98874.02
2019-05-02T01:57:16.249Z,98870.43
2019-05-02T01:59:44.757Z,98866.71
2019-05-02T02:02:13.640Z,98868.48
2019-05-02T02:04:42.223Z,98868.39
2019-05-02T02:07:15.039Z,98867.05
2019-05-02T02:09:44.157Z,98861.41
2019-05-02T02:12:11.776Z,98865.02
2019-05-02T02:14:40.260Z,98866.45
2019-05-02T02:17:09.983Z,98867.52
2019-05-02T02:19:45.312Z,98870.66
2019-05-02T02:22:39.334Z,98870.78
2019-05-02T02:25:25.521Z,98872.81
2019-05-02T02:27:54.995Z,98871.02
2019-05-02T02:30:26.577Z,98866.57
2019-05-02T02:33:00.627Z,98868.61
2019-05-02T02:35:25.407Z,98866.21
2019-05-02T02:37:55.684Z,98866.92
2019-05-02T02:40:32.899Z,98867.53
2019-05-02T02:42:55.096Z,98870.39
2019-05-02T02:45:51.746Z,98867.39
2019-05-02T02:48:19.687Z,98871.13
2019-05-02T02:50:48.178Z,98866.21
2019-05-02T02:53:29.114Z,98871.02
2019-05-02T02:56:01.645Z,98875.70
2019-05-02T02:58:30.830Z,98874.14
2019-05-02T03:00:59.612Z,98881.97
2019-05-02T03:03:30.585Z,98879.67
2019-05-02T03:06:05.464Z,98886.41
2019-05-02T03:08:29.535Z,98889.78
2019-05-02T03:10:58.098Z,98891.23
2019-05-02T03:13:53.770Z,98890.40
2019-05-02T03:16:24.629Z,98899.28
2019-05-02T03:18:53.127Z,98902.42
2019-05-02T03:21:22.512Z,98898.70
2019-05-02T03:24:01.597Z,98899.16
2019-05-02T03:26:21.994Z,98902.77
2019-05-02T03:28:57.721Z,98905.44
2019-05-02T03:31:24.794Z,98904.57
2019-05-02T03:33:55.836Z,98917.69
2019-05-02T03:36:35.644Z,98916.61
2019-05-02T03:38:52.796Z,98919.00
2019-05-02T03:41:23.612Z,98921.41
2019-05-02T03:44:09.098Z,98921.50
2019-05-02T03:46:22.826Z,98921.88
2019-05-02T03:48:51.814Z,98919.94
2019-05-02T03:51:24.776Z,98921.77
2019-05-02T03:53:50.777Z,98924.75
2019-05-02T03:56:19.356Z,98925.58
2019-05-02T03:58:56.332Z,98931.59
2019-05-02T04:01:18.875Z,98930.20
2019-05-02T04:03:47.482Z,98937.73
2019-05-02T04:06:21.031Z,98940.45
2019-05-02T04:08:58.852Z,98939.20
2019-05-02T04:11:22.438Z,98943.25
2019-05-02T04:13:55.102Z,98947.06
2019-05-02T04:16:24.804Z,98949.11
2019-05-02T04:18:57.878Z,98954.95
2019-05-02T04:21:26.534Z,98947.39
2019-05-02T04:24:07.596Z,98951.11
2019-05-02T04:26:27.701Z,98955.42
2019-05-02T04:28:56.940Z,98962.28
2019-05-02T04:31:31.393Z,98961.61
2019-05-02T04:33:55.941Z,98963.25
2019-05-02T04:36:24.458Z,98962.13
2019-05-02T04:38:53.143Z,98963.34
2019-05-02T04:41:28.553Z,98962.47
2019-05-02T04:43:57.600Z,98966.33
2019-05-02T04:46:27.986Z,98965.73
2019-05-02T04:48:53.337Z,98966.78
2019-05-02T04:51:22.086Z,98968.59
2019-05-02T04:53:50.663Z,98978.95
2019-05-02T04:56:19.139Z,98983.27
2019-05-02T04:58:49.543Z,98979.25
2019-05-02T05:01:20.968Z,98976.83
2019-05-02T05:03:57.267Z,98977.42
2019-05-02T05:06:19.569Z,98986.46
2019-05-02T05:08:48.517Z,98981.77
2019-05-02T05:11:20.874Z,98983.95
2019-05-02T05:13:48.083Z,98985.31
2019-05-02T05:16:18.591Z,98987.46
2019-05-02T05:18:49.411Z,98994.55
2019-05-02T05:21:17.999Z,98997.09
2019-05-02T05:24:15.496Z,98996.73
2019-05-02T05:26:47.587Z,98995.78
2019-05-02T05:29:20.713Z,98992.63
2019-05-02T05:31:48.257Z,99010.45
2019-05-02T05:34:17.398Z,99012.72
2019-05-02T05:36:48.118Z,99009.59
2019-05-02T05:39:17.614Z,99014.90
2019-05-02T05:41:48.347Z,99019.23
2019-05-02T05:44:18.085Z,99016.50
2019-05-02T05:46:49.307Z,99016.50
2019-05-02T05:49:20.346Z,99025.51
2019-05-02T05:51:49.552Z,99026.96
2019-05-02T05:54:18.063Z,99024.45
2019-05-02T05:56:48.104Z,99030.58
2019-05-02T05:59:17.518Z,99034.91
2019-05-02T06:01:48.346Z,99035.28
2019-05-02T06:04:19.520Z,99034.20
2019-05-02T06:06:47.988Z,99038.30
2019-05-02T06:09:16.663Z,99035.98
2019-05-02T06:11:45.263Z,99041.77
2019-05-02T06:14:13.863Z,99039.13
2019-05-02T06:16:46.691Z,99036.85
2019-05-02T06:19:17.912Z,99042.98
2019-05-02T06:21:45.167Z,99047.44
2019-05-02T06:24:15.800Z,99047.06
2019-05-02T06:26:49.189Z,99048.42
2019-05-02T06:29:18.453Z,99045.06
2019-05-02T06:31:45.445Z,99052.55
2019-05-02T06:34:14.021Z,99052.06
2019-05-02T06:36:42.562Z,99058.70
2019-05-02T06:39:11.082Z,99055.92
2019-05-02T06:41:39.686Z,99070.23
2019-05-02T06:44:10.298Z,99062.77
2019-05-02T06:46:38.732Z,99055.66
2019-05-02T06:49:07.337Z,99060.36
2019-05-02T06:51:35.875Z,99060.34
2019-05-02T06:54:04.517Z,99073.47
2019-05-02T06:56:33.115Z,99070.20
2019-05-02T06:59:03.263Z,99067.14
2019-05-02T07:01:31.903Z,99066.28
2019-05-02T07:04:00.459Z,99075.23
2019-05-02T07:06:29.283Z,99073.34
2019-05-02T07:08:59.767Z,99073.75
2019-05-02T07:11:28.520Z,99077.36
2019-05-02T07:13:57.157Z,99076.11
2019-05-02T07:19:29.380Z,99074.75
2019-05-02T07:22:00.354Z,99082.45
2019-05-02T07:24:30.859Z,99072.62
2019-05-02T07:27:01.877Z,99083.59
2019-05-02T07:29:29.456Z,99083.84
2019-05-02T07:31:57.955Z,99079.77
2019-05-02T07:34:26.569Z,99081.97
2019-05-02T07:36:55.175Z,99079.69
2019-05-02T07:39:23.897Z,99073.73
2019-05-02T07:41:52.466Z,99069.92
2019-05-02T07:44:21.145Z,99073.23
2019-05-02T07:46:51.845Z,99081.84
2019-05-02T07:49:20.838Z,99082.00
2019-05-02T07:51:52.249Z,99081.80
2019-05-02T07:54:24.805Z,99091.40
2019-05-02T07:56:53.443Z,99095.41
2019-05-02T07:59:23.274Z,99094.83
2019-05-02T08:01:52.687Z,99093.91
2019-05-02T08:04:21.363Z,99095.41
2019-05-02T08:06:49.989Z,99094.45
2019-05-02T08:09:18.969Z,99099.25
2019-05-02T08:11:47.589Z,99097.33
2019-05-02T08:14:16.367Z,99101.39
2019-05-02T08:16:44.911Z,99101.75
2019-05-02T08:19:13.494Z,99104.91
2019-05-02T08:21:42.022Z,99100.33
2019-05-02T08:24:10.535Z,99105.28
2019-05-02T08:27:13.905Z,99102.36
2019-05-02T08:29:42.536Z,99105.20
2019-05-02T08:32:12.174Z,99104.61
2019-05-02T08:34:46.226Z,99108.05
2019-05-02T08:37:13.780Z,99106.12
2019-05-02T08:39:42.469Z,99109.56
2019-05-02T08:42:11.866Z,99105.77
2019-05-02T08:44:50.604Z,99101.73
2019-05-02T08:47:18.685Z,99102.25
2019-05-02T08:49:42.712Z,99109.37
2019-05-02T08:52:11.218Z,99110.23
2019-05-02T08:54:40.514Z,99107.53
2019-05-02T08:57:09.128Z,99103.41
2019-05-02T08:59:37.640Z,99096.76
2019-05-02T09:02:06.171Z,99104.33
2019-05-02T09:04:34.778Z,99104.32
2019-05-02T09:07:03.376Z,99104.11
2019-05-02T09:09:32.097Z,99100.91
2019-05-02T09:12:09.741Z,99100.13
2019-05-02T09:14:32.214Z,99099.75
2019-05-02T09:17:08.868Z,99088.34
2019-05-02T09:19:34.610Z,99095.00
2019-05-02T09:22:02.540Z,99092.07
2019-05-02T09:24:32.612Z,99094.52
2019-05-02T09:27:02.511Z,99097.66
2019-05-02T09:29:32.742Z,99091.70
2019-05-02T09:32:02.247Z,99091.22
2019-05-02T09:34:31.866Z,99086.11
2019-05-02T09:37:02.594Z,99091.44
2019-05-02T09:39:32.755Z,99078.37
2019-05-02T09:42:02.182Z,99075.30
2019-05-02T09:44:30.792Z,99067.81
2019-05-02T09:46:59.415Z,99079.50
2019-05-02T09:49:27.944Z,99075.45
2019-05-02T09:51:59.461Z,99074.83
2019-05-02T09:54:27.005Z,99067.89
2019-05-02T09:56:55.530Z,99068.32
2019-05-02T09:59:33.171Z,99062.36
2019-05-02T10:02:04.606Z,99056.75
2019-05-02T10:04:33.000Z,99060.56
2019-05-02T10:07:02.583Z,99060.13
2019-05-02T10:09:32.373Z,99055.87
2019-05-02T10:12:02.046Z,99041.94
2019-05-02T10:14:34.680Z,99046.69
2019-05-02T10:17:07.162Z,99041.60
2019-05-02T10:19:34.117Z,99043.61
2019-05-02T10:22:02.731Z,99041.23
2019-05-02T10:24:32.234Z,99032.98
2019-05-02T10:27:07.141Z,99025.40
2019-05-02T10:29:32.931Z,99022.07
2019-05-02T10:32:01.891Z,99022.55
2019-05-02T10:34:32.807Z,99021.09
2019-05-02T10:37:02.840Z,99015.23
2019-05-02T10:39:34.025Z,99013.34
2019-05-02T10:42:02.408Z,99012.83
2019-05-02T10:44:34.863Z,99011.27
2019-05-02T10:47:02.870Z,99005.83
2019-05-02T10:49:54.282Z,99007.98
2019-05-02T10:52:29.710Z,99003.81
2019-05-02T10:54:53.460Z,99002.52
2019-05-02T10:57:22.071Z,98998.97
2019-05-02T10:59:52.556Z,99004.50
2019-05-02T11:02:32.750Z,98998.22
2019-05-02T11:05:05.893Z,98993.13
2019-05-02T11:07:34.418Z,98988.48
2019-05-02T11:10:06.756Z,98998.51
2019-05-02T11:12:46.793Z,98982.30
2019-05-02T11:15:49.071Z,98976.80
2019-05-02T11:18:23.387Z,98981.07
2019-05-02T11:20:52.572Z,98975.84
2019-05-02T11:23:22.143Z,98987.26
2019-05-02T11:25:52.623Z,98968.51
2019-05-02T11:28:22.044Z,98966.21
2019-05-02T11:30:52.484Z,98962.66
2019-05-02T11:33:22.956Z,98966.95
2019-05-02T11:35:53.548Z,98972.08
2019-05-02T11:38:45.943Z,98961.14
2019-05-02T11:40:52.825Z,98951.13
2019-05-02T11:43:22.330Z,98958.37
2019-05-02T11:45:54.415Z,98955.18
2019-05-02T11:48:22.562Z,98947.19
2019-05-02T11:50:52.317Z,98944.89
2019-05-02T11:53:28.470Z,98948.09
2019-05-02T11:55:53.205Z,98944.23
2019-05-02T11:58:22.994Z,98932.45
2019-05-02T12:00:52.386Z,98922.09
2019-05-02T12:03:28.087Z,98937.61
2019-05-02T12:05:58.120Z,98923.58
2019-05-02T12:08:27.039Z,98924.03
2019-05-02T12:10:55.872Z,98924.25
2019-05-02T12:13:24.415Z,98918.56
2019-05-02T12:15:53.238Z,98924.73
2019-05-02T12:18:23.347Z,98924.39
2019-05-02T12:20:52.285Z,98923.96
2019-05-02T12:23:22.664Z,98918.72
2019-05-02T12:25:52.042Z,98910.22
2019-05-02T12:28:22.885Z,98915.27
2019-05-02T12:30:52.084Z,98921.21
2019-05-02T12:33:23.014Z,98913.72
2019-05-02T12:35:52.443Z,98910.28
2019-05-02T12:38:23.059Z,98912.38
2019-05-02T12:40:52.177Z,98906.58
2019-05-02T12:43:22.886Z,98912.91
2019-05-02T12:45:52.820Z,98908.95
2019-05-02T12:48:22.285Z,98911.03
2019-05-02T12:50:52.824Z,98907.69
2019-05-02T12:53:22.003Z,98910.19
2019-05-02T12:55:52.577Z,98910.02
2019-05-02T12:58:21.855Z,98911.20
2019-05-02T13:00:52.844Z,98916.84
2019-05-02T13:03:53.331Z,98924.01
2019-05-02T13:06:22.166Z,98935.33
2019-05-02T13:08:52.635Z,98940.95
2019-05-02T13:11:36.819Z,98934.42
2019-05-02T13:14:15.899Z,98929.06
2019-05-02T13:16:36.420Z,98929.92
2019-05-02T13:19:06.283Z,98942.34
2019-05-02T13:21:57.988Z,98933.17
2019-05-02T13:24:29.941Z,98932.63
2019-05-02T13:26:59.678Z,98931.69
2019-05-02T13:29:29.339Z,98936.52
2019-05-02T13:32:18.938Z,98935.78
2019-05-02T13:35:07.411Z,98942.03
2019-05-02T13:37:36.547Z,98939.98
2019-05-02T13:40:12.878Z,98941.23
2019-05-02T13:42:41.906Z,98940.54
2019-05-02T13:45:21.627Z,98944.45
2019-05-02T13:47:51.920Z,98946.14
2019-05-02T13:50:22.353Z,98950.09
2019-05-02T13:52:56.527Z,98961.02
2019-05-02T13:55:26.387Z,98959.13
2019-05-02T13:57:55.129Z,98973.66
2019-05-02T14:00:31.914Z,98976.30
2019-05-02T14:03:02.715Z,98978.38
2019-05-02T14:05:31.886Z,98978.09
2019-05-02T14:08:35.552Z,98970.28
2019-05-02T14:11:21.635Z,98976.84
2019-05-02T14:13:52.134Z,98969.11
2019-05-02T14:16:22.161Z,98962.26
2019-05-02T14:18:52.862Z,98961.14
2019-05-02T14:21:22.391Z,98966.13
2019-05-02T14:23:51.849Z,98957.53
2019-05-02T14:26:29.631Z,98955.66
2019-05-02T14:28:53.282Z,98952.88
2019-05-02T14:31:21.987Z,98945.22
2019-05-02T14:34:09.001Z,98939.97
2019-05-02T14:36:38.144Z,98946.80
2019-05-02T14:39:08.693Z,98955.52
2019-05-02T14:41:41.141Z,98954.38
2019-05-02T14:44:07.961Z,98975.73
2019-05-02T14:46:39.413Z,98977.23
2019-05-02T14:49:07.297Z,98978.69
2019-05-02T14:51:36.745Z,98967.42
2019-05-02T14:54:08.313Z,98966.45
2019-05-02T14:57:05.508Z,98965.41
2019-05-02T14:59:34.135Z,98948.80
2019-05-02T15:02:07.445Z,98946.44
2019-05-02T15:04:38.282Z,98942.84
2019-05-02T15:07:06.919Z,98944.59
2019-05-02T15:09:36.371Z,98937.87
2019-05-02T15:12:14.003Z,98944.65
2019-05-02T15:14:36.102Z,98931.17
2019-05-02T15:17:05.210Z,98926.05
2019-05-02T15:19:33.716Z,98923.67
2019-05-02T15:22:02.627Z,98926.64
2019-05-02T15:24:36.170Z,98922.69
2019-05-02T15:27:11.479Z,98925.94
2019-05-02T15:29:32.712Z,98920.70
2019-05-02T15:32:36.983Z,98925.21
2019-05-02T15:35:17.624Z,98927.94
2019-05-02T15:37:46.300Z,98920.41
2019-05-02T15:42:52.094Z,98932.33
2019-05-02T15:45:23.777Z,98926.88
2019-05-02T15:47:52.714Z,98935.74
2019-05-02T15:50:24.439Z,98930.91
2019-05-02T15:53:03.123Z,98933.56
2019-05-02T15:55:33.907Z,98936.65
2019-05-02T15:58:02.445Z,98931.01
2019-05-02T16:00:36.206Z,98931.94
2019-05-02T16:03:04.932Z,98933.07
2019-05-02T16:05:36.715Z,98929.80
2019-05-02T16:08:08.281Z,98935.05
2019-05-02T16:10:38.420Z,98932.64
2019-05-02T16:13:08.811Z,98933.73
2019-05-02T16:15:37.352Z,98943.66
2019-05-02T16:18:06.122Z,98947.65
2019-05-02T16:21:04.794Z,98949.39
2019-05-02T16:23:31.795Z,98955.31
2019-05-02T16:25:56.900Z,98963.50
2019-05-02T16:28:26.093Z,98959.92
2019-05-02T16:30:57.476Z,98962.82
2019-05-02T16:33:26.314Z,98964.41
2019-05-02T16:35:54.821Z,98964.87
2019-05-02T16:38:26.923Z,98966.45
2019-05-02T16:40:53.939Z,98971.47
2019-05-02T16:43:24.791Z,98971.63
2019-05-02T16:45:53.763Z,98972.80
2019-05-02T16:48:23.864Z,98979.86
2019-05-02T16:50:52.737Z,98981.13
2019-05-02T16:53:26.024Z,98979.58
2019-05-02T16:55:53.650Z,98982.50
2019-05-02T16:58:22.549Z,98989.01
2019-05-02T17:00:52.782Z,98984.73
2019-05-02T17:03:24.725Z,98993.23
2019-05-02T17:05:54.359Z,98988.56
2019-05-02T17:08:57.517Z,99005.16
2019-05-02T17:11:32.379Z,99010.09
2019-05-02T17:13:59.291Z,99013.58
2019-05-02T17:16:28.048Z,99018.84
2019-05-02T17:18:56.758Z,99013.41
2019-05-02T17:21:26.870Z,99021.84
2019-05-02T17:23:55.787Z,99025.63
2019-05-02T17:26:24.496Z,99018.48
2019-05-02T17:28:53.105Z,99022.38
2019-05-02T17:31:23.040Z,99029.93
2019-05-02T17:33:54.432Z,99032.13
2019-05-02T17:36:28.696Z,99037.02
2019-05-02T17:38:54.488Z,99035.41
2019-05-02T17:41:23.229Z,99042.19
2019-05-02T17:43:51.955Z,99038.72
2019-05-02T17:46:23.821Z,99041.40
2019-05-02T17:48:52.654Z,99043.47
2019-05-02T17:51:35.791Z,99032.55
2019-05-02T17:53:59.197Z,99040.48
2019-05-02T17:56:27.873Z,99048.75
2019-05-02T17:58:58.250Z,99047.27
2019-05-02T18:01:35.036Z,99052.06
2019-05-02T18:04:06.766Z,99058.72
2019-05-02T18:06:35.717Z,99063.73
2019-05-02T18:09:06.884Z,99068.23
2019-05-02T18:11:37.719Z,99066.66
2019-05-02T18:14:18.586Z,99069.86
2019-05-02T18:16:39.183Z,99074.37
2019-05-02T18:19:08.003Z,99079.46
2019-05-02T18:21:36.742Z,99083.56
2019-05-02T18:24:06.220Z,99085.78
2019-05-02T18:26:34.968Z,99092.23
2019-05-02T18:29:06.832Z,99094.05
2019-05-02T18:31:34.836Z,99091.92
2019-05-02T18:34:04.667Z,99093.94
2019-05-02T18:36:33.368Z,99092.98
2019-05-02T18:39:05.179Z,99090.81
2019-05-02T18:41:37.059Z,99101.75
2019-05-02T18:44:03.940Z,99096.84
2019-05-02T18:46:36.789Z,99098.20
2019-05-02T18:49:03.894Z,99101.83
2019-05-02T18:51:32.521Z,99099.81
2019-05-02T18:54:04.225Z,99095.81
2019-05-02T18:56:35.597Z,99099.05
2019-05-02T18:59:02.738Z,99105.19
2019-05-02T19:01:31.998Z,99108.03
2019-05-02T19:04:02.093Z,99111.96
2019-05-02T19:06:34.980Z,99114.17
2019-05-02T19:09:06.280Z,99116.20
2019-05-02T19:11:35.338Z,99115.36
2019-05-02T19:14:04.572Z,99122.49
2019-05-02T19:16:33.197Z,99122.77
2019-05-02T19:19:01.906Z,99130.52
2019-05-02T19:21:32.043Z,99125.98
2019-05-02T19:24:02.341Z,99120.44
2019-05-02T19:26:32.603Z,99125.37
2019-05-02T19:29:24.059Z,99126.76
2019-05-02T19:31:53.867Z,99127.61
2019-05-02T19:34:26.810Z,99129.28
2019-05-02T19:36:58.069Z,99131.07
2019-05-02T19:39:27.639Z,99131.75
2019-05-02T19:41:56.143Z,99134.61
2019-05-02T19:44:29.102Z,99136.74
2019-05-02T19:46:55.370Z,99133.16
2019-05-02T19:49:25.420Z,99139.70
2019-05-02T19:51:56.384Z,99138.71
2019-05-02T19:54:25.294Z,99140.50
2019-05-02T19:56:54.401Z,99136.39
2019-05-02T19:59:26.367Z,99137.58
2019-05-02T20:01:56.913Z,99135.01
2019-05-02T20:04:24.393Z,99132.42
2019-05-02T20:06:53.082Z,99142.59
2019-05-02T20:09:21.907Z,99137.90
2019-05-02T20:11:52.102Z,99136.06
2019-05-02T20:14:21.815Z,99143.20
2019-05-02T20:16:53.029Z,99137.81
2019-05-02T20:19:25.361Z,99133.70
2019-05-02T20:22:26.897Z,99139.50
2019-05-02T20:25:00.163Z,99141.06
2019-05-02T20:27:28.445Z,99128.03
2019-05-02T20:29:57.494Z,99141.68
2019-05-02T20:32:26.241Z,99135.00
2019-05-02T20:34:54.815Z,99142.89
2019-05-02T20:37:23.452Z,99135.64
2019-05-02T20:39:52.062Z,99133.97
2019-05-02T20:42:20.607Z,99137.19
2019-05-02T20:44:49.101Z,99134.58
2019-05-02T20:47:22.823Z,99137.09
2019-05-02T20:49:51.962Z,99140.09
2019-05-02T20:52:21.739Z,99142.52
2019-05-02T21:06:44.052Z,99141.06
2019-05-02T21:09:22.121Z,99142.88
2019-05-02T21:11:54.306Z,99147.55
2019-05-02T21:14:22.923Z,99140.81
2019-05-02T21:16:51.412Z,99145.75
2019-05-02T21:19:21.755Z,99149.23
2019-05-02T21:21:53.164Z,99157.42
2019-05-02T21:24:22.161Z,99151.09
2019-05-02T21:26:52.485Z,99163.97
2019-05-02T21:29:22.868Z,99159.85
2019-05-02T21:31:52.055Z,99158.75
2019-05-02T21:34:22.372Z,99156.98
2019-05-02T21:36:51.888Z,99156.80
2019-05-02T21:39:22.362Z,99159.06
2019-05-02T21:41:51.706Z,99160.98
2019-05-02T21:44:22.150Z,99155.64
2019-05-02T21:46:51.839Z,99162.31
2019-05-02T21:49:38.715Z,99160.36
2019-05-02T21:52:31.866Z,99163.09
2019-05-02T21:55:25.770Z,99161.88
2019-05-02T21:57:54.678Z,99163.38
2019-05-02T22:00:52.668Z,99162.50
2019-05-02T22:03:21.783Z,99171.92
2019-05-02T22:05:50.397Z,99174.09
2019-05-02T22:08:19.109Z,99175.31
2019-05-02T22:10:48.242Z,99176.92
2019-05-02T22:13:17.030Z,99175.84
2019-05-02T22:15:45.731Z,99172.80
2019-05-02T22:18:14.461Z,99174.45
2019-05-02T22:20:43.218Z,99172.80
2019-05-02T22:23:11.919Z,99172.33
2019-05-02T22:25:41.979Z,99180.77
2019-05-02T22:28:12.483Z,99175.28
2019-05-02T22:30:42.883Z,99176.52
2019-05-02T22:33:11.945Z,99174.95
2019-05-02T22:35:43.153Z,99179.45
2019-05-02T22:38:27.654Z,99176.93
2019-05-02T22:40:57.717Z,99175.48
2019-05-02T22:43:26.297Z,99174.25
2019-05-02T22:45:55.107Z,99176.25
2019-05-02T22:48:23.885Z,99176.40
2019-05-02T22:50:52.591Z,99179.40
2019-05-02T22:53:21.576Z,99178.34
2019-05-02T22:55:51.780Z,99174.67
2019-05-02T22:58:22.226Z,99174.45
2019-05-02T23:00:52.281Z,99177.30
2019-05-02T23:03:21.540Z,99174.75
2019-05-02T23:05:52.640Z,99181.48
2019-05-02T23:08:21.972Z,99183.77
2019-05-02T23:10:53.403Z,99188.97
2019-05-02T23:13:25.477Z,99182.40
2019-05-02T23:15:54.070Z,99182.95
2019-05-02T23:18:23.813Z,99190.98
2019-05-02T23:20:52.690Z,99180.38
2019-05-02T23:23:21.540Z,99182.56
2019-05-02T23:26:03.326Z,99178.68
2019-05-02T23:28:32.865Z,99179.00
2019-05-02T23:31:02.603Z,99181.08
2019-05-02T23:33:49.209Z,99180.16
2019-05-02T23:36:17.924Z,99179.95
2019-05-02T23:38:46.606Z,99184.23
2019-05-02T23:41:15.277Z,99177.69
2019-05-02T23:43:46.439Z,99174.72
2019-05-02T23:46:15.225Z,99168.25
2019-05-02T23:48:43.816Z,99171.80
2019-05-02T23:51:17.295Z,99169.63
2019-05-02T23:53:46.084Z,99166.89
2019-05-02T23:56:14.735Z,99163.66
2019-05-02T23:58:43.227Z,99163.00
